Time;durP1;ratioP1;P1;durP2;ratioP2;P2;SDS_P1;SDS_P2;PMS_P1;PMS_P2;Temp;Humidity;BMP_temperature;BMP_pressure;BME280_temperature;BME280_humidity;BME280_pressure;Samples;Min_cycle;Max_cycle;Signal;HPM_P1;HPM_P2
2022/08/29 00:00:54;;;;;;;2.92;0.30;;;16.00;99.90;;;;;;4978129;28;20041;-67
2022/08/29 00:03:20;;;;;;;1.20;0.47;;;16.00;99.90;;;;;;4977079;28;20402;-70
2022/08/29 00:05:45;;;;;;;2.90;0.77;;;15.90;99.90;;;;;;4974870;28;20030;-70
2022/08/29 00:08:11;;;;;;;1.58;0.32;;;16.00;99.90;;;;;;4979059;28;20141;-72
2022/08/29 00:10:38;;;;;;;0.80;0.30;;;15.90;99.90;;;;;;4984034;28;20101;-70
2022/08/29 00:13:08;;;;;;;4.55;0.55;;;15.90;99.90;;;;;;4980482;28;20039;-71
2022/08/29 00:15:35;;;;;;;1.55;0.60;;;15.90;99.90;;;;;;4981148;28;20137;-70
2022/08/29 00:18:00;;;;;;;0.90;0.40;;;15.80;99.90;;;;;;4974876;28;20053;-71
2022/08/29 00:20:29;;;;;;;6.93;0.70;;;15.80;99.90;;;;;;5008170;28;20408;-71
2022/08/29 00:22:54;;;;;;;2.63;0.50;;;15.70;99.90;;;;;;4975410;28;20035;-67
2022/08/29 00:25:20;;;;;;;3.03;0.60;;;15.70;99.90;;;;;;4978348;28;20030;-70
2022/08/29 00:27:46;;;;;;;1.55;0.35;;;15.70;99.90;;;;;;4984940;28;20499;-70
2022/08/29 00:30:12;;;;;;;2.28;0.70;;;15.60;99.90;;;;;;4977164;28;20054;-70
2022/08/29 00:32:38;;;;;;;5.28;0.80;;;15.60;99.90;;;;;;4980718;28;20042;-70
2022/08/29 00:35:07;;;;;;;1.20;0.30;;;15.60;99.90;;;;;;4976220;28;20547;-70
2022/08/29 00:37:32;;;;;;;1.95;0.75;;;15.50;99.90;;;;;;4980754;28;20526;-70
2022/08/29 00:39:58;;;;;;;5.07;0.63;;;15.50;99.90;;;;;;4979649;28;20058;-68
2022/08/29 00:42:25;;;;;;;2.25;0.95;;;15.40;99.90;;;;;;4979379;28;20039;-68
2022/08/29 00:44:50;;;;;;;5.35;0.50;;;15.40;99.90;;;;;;4976530;28;20065;-70
2022/08/29 00:47:19;;;;;;;4.47;0.68;;;15.40;99.90;;;;;;5019723;28;20058;-70
2022/08/29 00:49:49;;;;;;;2.28;0.60;;;15.40;99.90;;;;;;4981189;28;20088;-69
2022/08/29 00:52:27;;;;;;;3.83;0.52;;;15.40;99.90;;;;;;4979451;28;20045;-68
2022/08/29 00:54:54;;;;;;;3.42;0.65;;;15.40;99.90;;;;;;4981128;28;20031;-70
2022/08/29 00:57:22;;;;;;;4.82;1.17;;;15.40;99.90;;;;;;4975659;28;20045;-70
2022/08/29 00:59:50;;;;;;;2.58;0.55;;;15.30;99.90;;;;;;4980338;28;20034;-70
2022/08/29 01:02:16;;;;;;;2.00;0.40;;;15.30;99.90;;;;;;4978132;28;20421;-68
2022/08/29 01:04:42;;;;;;;2.35;0.50;;;15.30;99.90;;;;;;4978936;28;20121;-68
2022/08/29 01:07:09;;;;;;;1.98;0.50;;;15.20;99.90;;;;;;4979067;28;20049;-70
2022/08/29 01:09:36;;;;;;;1.83;0.60;;;15.20;99.90;;;;;;4978894;28;20035;-70
2022/08/29 01:12:16;;;;;;;1.17;0.70;;;15.20;99.90;;;;;;4983620;28;20026;-70
2022/08/29 01:14:59;;;;;;;2.17;0.80;;;15.10;99.90;;;;;;4978694;28;20113;-69
2022/08/29 01:17:36;;;;;;;3.35;0.45;;;15.10;99.90;;;;;;4981164;28;20483;-68
2022/08/29 01:20:26;;;;;;;3.70;0.52;;;15.10;99.90;;;;;;4979515;28;20034;-69
2022/08/29 01:23:01;;;;;;;1.33;0.70;;;15.10;99.90;;;;;;4982467;28;20034;-70
2022/08/29 01:25:33;;;;;;;2.90;0.63;;;15.10;99.90;;;;;;4987215;28;20034;-70
2022/08/29 01:28:08;;;;;;;2.25;0.35;;;15.00;99.90;;;;;;4989319;28;20479;-68
2022/08/29 01:30:34;;;;;;;1.88;0.70;;;15.10;99.90;;;;;;5010681;28;20041;-70
2022/08/29 01:33:00;;;;;;;4.82;0.80;;;15.10;99.90;;;;;;4976332;28;20125;-70
2022/08/29 01:35:26;;;;;;;1.83;0.43;;;15.10;99.90;;;;;;4978206;28;20035;-68
2022/08/29 01:37:53;;;;;;;1.35;0.65;;;15.10;99.90;;;;;;4974752;28;20042;-70
2022/08/29 01:40:19;;;;;;;2.70;0.50;;;15.10;99.90;;;;;;4979660;28;20077;-70
2022/08/29 01:42:45;;;;;;;2.78;0.55;;;15.10;99.90;;;;;;4976590;28;20189;-71
2022/08/29 01:45:11;;;;;;;1.60;0.30;;;15.20;99.90;;;;;;4976848;28;20035;-69
2022/08/29 01:47:38;;;;;;;3.53;0.50;;;15.30;99.90;;;;;;4986341;28;20443;-69
2022/08/29 01:50:10;;;;;;;3.20;0.60;;;15.30;99.90;;;;;;4984903;28;20047;-68
2022/08/29 01:52:35;;;;;;;3.45;0.60;;;15.30;99.90;;;;;;4984264;28;20034;-69
2022/08/29 01:55:01;;;;;;;5.32;0.68;;;15.30;99.90;;;;;;4983790;28;20158;-70
2022/08/29 01:57:27;;;;;;;3.70;0.57;;;15.30;99.90;;;;;;4983720;28;20092;-69
2022/08/29 01:59:52;;;;;;;4.65;0.68;;;15.30;99.90;;;;;;4975984;28;20141;-70
2022/08/29 02:02:27;;;;;;;4.13;0.73;;;15.30;99.90;;;;;;4979638;28;20042;-70
2022/08/29 02:04:56;;;;;;;2.45;0.55;;;15.30;99.90;;;;;;4980588;28;20047;-71
2022/08/29 02:07:23;;;;;;;6.72;0.75;;;15.30;99.90;;;;;;4974891;28;20411;-70
2022/08/29 02:09:50;;;;;;;1.38;0.38;;;15.20;99.90;;;;;;4979295;28;20035;-70
2022/08/29 02:12:16;;;;;;;4.47;0.70;;;15.20;99.90;;;;;;4979304;28;20066;-70
2022/08/29 02:14:43;;;;;;;2.63;0.40;;;15.10;99.90;;;;;;4977130;28;20042;-67
2022/08/29 02:17:09;;;;;;;2.20;0.60;;;15.10;99.90;;;;;;4977750;28;20045;-70
2022/08/29 02:19:36;;;;;;;4.13;0.82;;;15.10;99.90;;;;;;4977508;28;20426;-70
2022/08/29 02:22:02;;;;;;;4.03;0.77;;;15.10;99.90;;;;;;4975871;28;20050;-70
2022/08/29 02:24:29;;;;;;;1.45;0.60;;;15.00;99.90;;;;;;4977887;28;20030;-70
2022/08/29 02:26:56;;;;;;;1.67;0.50;;;15.00;99.90;;;;;;4984851;28;20038;-70
2022/08/29 02:29:23;;;;;;;1.85;0.40;;;15.00;99.90;;;;;;4981485;28;20053;-70
2022/08/29 02:31:49;;;;;;;1.75;0.73;;;15.00;99.90;;;;;;4987199;28;20038;-70
2022/08/29 02:34:14;;;;;;;2.92;0.50;;;15.00;99.90;;;;;;4977951;28;20053;-71
2022/08/29 02:36:40;;;;;;;2.55;0.43;;;14.90;99.90;;;;;;4974028;28;20034;-68
2022/08/29 02:39:06;;;;;;;2.55;0.50;;;14.90;99.90;;;;;;4977414;28;20039;-70
2022/08/29 02:41:31;;;;;;;7.35;1.08;;;14.90;99.90;;;;;;5008682;28;20040;-70
2022/08/29 02:43:58;;;;;;;4.57;0.70;;;14.90;99.90;;;;;;4976435;28;20476;-69
2022/08/29 02:46:24;;;;;;;3.00;0.75;;;14.80;99.90;;;;;;4977025;28;20038;-70
2022/08/29 02:48:49;;;;;;;1.63;0.55;;;14.80;99.90;;;;;;4975244;28;20034;-70
2022/08/29 02:51:21;;;;;;;3.03;0.60;;;14.80;99.90;;;;;;4978206;28;20038;-68
2022/08/29 02:53:47;;;;;;;2.75;0.70;;;14.70;99.90;;;;;;4977771;28;20084;-69
2022/08/29 02:56:13;;;;;;;2.88;0.47;;;14.70;99.90;;;;;;4975228;28;20047;-69
2022/08/29 02:58:39;;;;;;;3.45;1.15;;;14.70;99.90;;;;;;4976614;28;20267;-69
2022/08/29 03:01:05;;;;;;;3.03;0.73;;;14.70;99.90;;;;;;4977064;28;20043;-71
2022/08/29 03:03:32;;;;;;;2.42;0.50;;;14.70;99.90;;;;;;4977507;28;20042;-69
2022/08/29 03:05:57;;;;;;;3.50;0.70;;;14.60;99.90;;;;;;4978771;28;20121;-69
2022/08/29 03:08:23;;;;;;;1.27;0.38;;;14.60;99.90;;;;;;4974808;28;20468;-69
2022/08/29 03:10:49;;;;;;;1.27;0.60;;;14.60;99.90;;;;;;4980532;28;20023;-69
2022/08/29 03:13:16;;;;;;;2.53;0.63;;;14.50;99.90;;;;;;4976445;28;20058;-67
2022/08/29 03:15:42;;;;;;;2.17;0.45;;;14.60;99.90;;;;;;4978508;28;20042;-70
2022/08/29 03:18:08;;;;;;;1.75;0.60;;;14.50;99.90;;;;;;4974027;28;20042;-71
2022/08/29 03:20:35;;;;;;;3.08;0.88;;;14.60;99.90;;;;;;4975693;28;20030;-68
2022/08/29 03:23:01;;;;;;;5.57;1.50;;;14.50;99.90;;;;;;4977182;28;20352;-68
2022/08/29 03:25:26;;;;;;;3.60;0.70;;;14.50;99.90;;;;;;4989283;28;20498;-70
2022/08/29 03:27:52;;;;;;;3.47;0.45;;;14.60;99.90;;;;;;4991585;28;20399;-70
2022/08/29 03:30:18;;;;;;;1.75;0.70;;;14.50;99.90;;;;;;5011516;28;20041;-67
2022/08/29 03:32:44;;;;;;;3.25;0.98;;;14.50;99.90;;;;;;4979393;28;20062;-70
2022/08/29 03:35:11;;;;;;;1.23;0.40;;;14.50;99.90;;;;;;4975231;28;20078;-70
2022/08/29 03:37:37;;;;;;;0.68;0.30;;;14.50;99.90;;;;;;4978762;28;20043;-69
2022/08/29 03:40:05;;;;;;;4.28;0.65;;;14.50;99.90;;;;;;4985408;28;20056;-70
2022/08/29 03:42:30;;;;;;;2.30;0.80;;;14.50;99.90;;;;;;4975367;28;20041;-71
2022/08/29 03:44:56;;;;;;;1.65;0.60;;;14.50;99.90;;;;;;4975601;28;20125;-69
2022/08/29 03:47:21;;;;;;;3.63;1.10;;;14.60;99.90;;;;;;4976700;28;20868;-69
2022/08/29 03:49:47;;;;;;;1.65;0.75;;;14.60;99.90;;;;;;4972695;28;20043;-70
2022/08/29 03:52:13;;;;;;;1.30;0.50;;;14.60;99.90;;;;;;4977713;28;20040;-70
2022/08/29 03:54:39;;;;;;;1.90;0.40;;;14.70;99.90;;;;;;4975527;28;20121;-69
2022/08/29 03:57:05;;;;;;;4.97;0.65;;;14.80;99.90;;;;;;4973054;28;20596;-70
2022/08/29 03:59:32;;;;;;;1.75;0.47;;;14.80;99.90;;;;;;5006444;28;20372;-69
2022/08/29 04:01:57;;;;;;;3.05;0.88;;;14.80;99.90;;;;;;4975397;28;20034;-70
2022/08/29 04:07:11;;;;;;;2.13;0.70;;;14.80;99.90;;;;;;4977357;28;20718;-71
2022/08/29 04:09:37;;;;;;;4.75;0.50;;;14.80;99.90;;;;;;4974870;28;20039;-70
2022/08/29 04:12:03;;;;;;;2.72;0.80;;;14.80;99.90;;;;;;4976392;28;20043;-70
2022/08/29 04:14:29;;;;;;;1.70;0.82;;;14.80;99.90;;;;;;4973546;28;20053;-70
2022/08/29 04:16:54;;;;;;;1.67;0.63;;;14.80;99.90;;;;;;4973542;28;20046;-70
2022/08/29 04:19:20;;;;;;;2.60;0.57;;;14.80;99.90;;;;;;4981175;28;20042;-70
2022/08/29 04:21:47;;;;;;;1.98;0.73;;;14.80;99.90;;;;;;4988679;28;20026;-67
2022/08/29 04:24:14;;;;;;;2.30;0.80;;;14.80;99.90;;;;;;4986843;28;20645;-71
2022/08/29 04:26:40;;;;;;;0.98;0.50;;;14.90;99.90;;;;;;4991063;28;20038;-70
2022/08/29 04:29:10;;;;;;;4.70;1.40;;;14.90;99.90;;;;;;4989358;28;20038;-70
2022/08/29 04:31:37;;;;;;;1.63;0.60;;;14.90;99.90;;;;;;4984279;28;20031;-72
2022/08/29 04:34:05;;;;;;;3.58;0.80;;;14.90;99.90;;;;;;4989176;28;20137;-71
2022/08/29 04:36:33;;;;;;;6.78;1.50;;;15.00;99.90;;;;;;4991090;28;20046;-70
2022/08/29 04:38:58;;;;;;;4.22;0.88;;;15.00;99.90;;;;;;4989724;28;20038;-71
2022/08/29 04:41:24;;;;;;;2.17;0.80;;;15.00;99.90;;;;;;4989766;28;20093;-71
2022/08/29 04:43:50;;;;;;;2.70;0.80;;;15.00;99.90;;;;;;4988023;28;20031;-71
2022/08/29 04:46:16;;;;;;;2.70;0.60;;;15.00;99.90;;;;;;4982025;28;20030;-70
2022/08/29 04:48:42;;;;;;;4.13;0.90;;;15.00;99.90;;;;;;4981252;28;20435;-72
2022/08/29 04:51:08;;;;;;;4.65;0.70;;;15.10;99.90;;;;;;4988136;28;20054;-71
2022/08/29 04:53:33;;;;;;;2.97;0.75;;;15.10;99.90;;;;;;4991264;28;20046;-71
2022/08/29 04:56:10;;;;;;;3.97;0.40;;;15.10;99.90;;;;;;4989878;28;20038;-72
2022/08/29 04:58:39;;;;;;;4.13;0.70;;;15.20;99.90;;;;;;4992547;28;20052;-72
2022/08/29 05:01:05;;;;;;;2.83;0.60;;;15.10;99.90;;;;;;4990140;28;20053;-73
2022/08/29 05:03:31;;;;;;;5.10;0.93;;;15.10;99.90;;;;;;4993273;28;20723;-73
2022/08/29 05:06:08;;;;;;;4.38;0.88;;;15.20;99.90;;;;;;4988808;28;20035;-72
2022/08/29 05:08:36;;;;;;;2.95;0.95;;;15.20;99.90;;;;;;4988512;28;20631;-71
2022/08/29 05:11:02;;;;;;;4.90;0.88;;;15.20;99.90;;;;;;4986510;28;20694;-72
2022/08/29 05:13:28;;;;;;;1.50;0.80;;;15.20;99.90;;;;;;4986443;28;20037;-72
2022/08/29 05:15:53;;;;;;;4.70;1.00;;;15.20;99.90;;;;;;4986978;28;20039;-72
2022/08/29 05:18:19;;;;;;;1.45;0.65;;;15.20;99.90;;;;;;4984799;28;20049;-71
2022/08/29 05:20:47;;;;;;;2.47;0.70;;;15.20;99.90;;;;;;4984204;28;20044;-71
2022/08/29 05:23:15;;;;;;;4.70;0.75;;;15.20;99.90;;;;;;4985825;28;20145;-72
2022/08/29 05:25:41;;;;;;;1.70;0.65;;;15.30;99.90;;;;;;4986992;28;20064;-70
2022/08/29 05:28:10;;;;;;;2.92;1.52;;;15.30;99.90;;;;;;4986716;28;20066;-69
2022/08/29 05:30:37;;;;;;;1.60;0.55;;;15.30;99.90;;;;;;4986104;28;20034;-69
2022/08/29 05:33:04;;;;;;;3.13;0.73;;;15.40;99.90;;;;;;4985636;28;20053;-69
2022/08/29 05:35:30;;;;;;;4.20;0.80;;;15.40;99.90;;;;;;4985252;28;20049;-69
2022/08/29 05:37:55;;;;;;;5.15;0.93;;;15.50;99.90;;;;;;4987891;28;20541;-70
2022/08/29 05:40:21;;;;;;;3.83;0.70;;;15.50;99.90;;;;;;4990413;28;20039;-70
2022/08/29 05:42:47;;;;;;;4.68;1.17;;;15.60;99.90;;;;;;4987685;28;20034;-69
2022/08/29 05:45:12;;;;;;;8.93;1.58;;;15.70;99.90;;;;;;4986369;28;20031;-69
2022/08/29 05:47:38;;;;;;;3.30;0.70;;;15.70;99.90;;;;;;4985370;28;20049;-71
2022/08/29 05:50:05;;;;;;;2.08;0.88;;;15.80;99.90;;;;;;4986429;28;20057;-69
2022/08/29 05:52:31;;;;;;;2.78;0.68;;;15.80;99.90;;;;;;4981266;28;20041;-70
2022/08/29 05:54:57;;;;;;;1.73;0.50;;;15.80;99.90;;;;;;4983587;28;20503;-70
2022/08/29 05:57:23;;;;;;;4.43;0.77;;;15.90;99.90;;;;;;4987571;28;20528;-70
2022/08/29 05:59:51;;;;;;;7.80;0.65;;;15.90;99.90;;;;;;4985747;28;20069;-69
2022/08/29 06:02:17;;;;;;;2.92;1.00;;;15.90;99.90;;;;;;4982358;28;20188;-69
2022/08/29 06:04:44;;;;;;;2.05;0.80;;;16.00;99.90;;;;;;4987027;28;20034;-70
2022/08/29 06:07:09;;;;;;;5.97;0.93;;;16.00;99.90;;;;;;4988605;28;20038;-70
2022/08/29 06:09:37;;;;;;;9.23;0.80;;;16.00;99.90;;;;;;4988540;28;20095;-70
2022/08/29 06:12:04;;;;;;;3.13;0.85;;;16.00;99.90;;;;;;4991054;28;20577;-71
2022/08/29 06:14:29;;;;;;;6.07;0.93;;;16.00;99.90;;;;;;4986680;28;20572;-70
2022/08/29 06:16:55;;;;;;;6.43;1.05;;;16.10;99.90;;;;;;4982912;28;20037;-70
2022/08/29 06:19:21;;;;;;;5.63;1.08;;;16.00;99.90;;;;;;4984655;28;20041;-69
2022/08/29 06:21:47;;;;;;;3.70;0.95;;;16.10;99.90;;;;;;4986501;28;20194;-71
2022/08/29 06:24:14;;;;;;;3.38;1.10;;;16.20;99.90;;;;;;4983364;28;20045;-70
2022/08/29 06:26:39;;;;;;;1.75;0.75;;;16.20;99.90;;;;;;4986449;28;20034;-69
2022/08/29 06:29:07;;;;;;;5.15;0.88;;;16.20;99.90;;;;;;4986265;28;20123;-69
2022/08/29 06:31:32;;;;;;;6.57;0.90;;;16.20;99.90;;;;;;4986847;28;20038;-70
2022/08/29 06:34:00;;;;;;;6.35;1.35;;;16.30;99.90;;;;;;4991198;28;20041;-70
2022/08/29 06:36:27;;;;;;;7.05;1.70;;;16.30;99.90;;;;;;4987334;28;20034;-70
2022/08/29 06:39:05;;;;;;;6.78;1.13;;;16.40;99.90;;;;;;4985149;28;20065;-71
2022/08/29 06:41:31;;;;;;;5.75;1.02;;;16.60;99.90;;;;;;5016797;28;20168;-70
2022/08/29 06:43:57;;;;;;;12.30;1.52;;;16.70;99.90;;;;;;4983445;28;20046;-70
2022/08/29 06:46:25;;;;;;;3.95;1.10;;;16.90;99.90;;;;;;4983300;28;20034;-70
2022/08/29 06:48:52;;;;;;;3.15;1.20;;;17.00;99.90;;;;;;4987639;28;20075;-71
2022/08/29 06:51:18;;;;;;;7.10;1.60;;;17.10;99.90;;;;;;4987717;28;21325;-70
2022/08/29 06:53:44;;;;;;;5.38;0.98;;;17.10;99.90;;;;;;4990887;28;20030;-70
2022/08/29 06:56:10;;;;;;;3.55;1.30;;;17.10;99.90;;;;;;4989217;28;20872;-70
2022/08/29 06:58:36;;;;;;;3.25;1.30;;;17.20;99.90;;;;;;4983786;28;20073;-69
2022/08/29 07:01:13;;;;;;;6.10;1.17;;;17.10;99.90;;;;;;4983293;28;20466;-69
2022/08/29 07:03:40;;;;;;;2.30;0.80;;;17.10;99.90;;;;;;5014748;28;20068;-71
2022/08/29 07:06:05;;;;;;;3.65;0.73;;;17.10;99.90;;;;;;4982144;28;20073;-71
2022/08/29 07:08:32;;;;;;;2.75;1.15;;;17.20;99.90;;;;;;4983355;28;20117;-71
2022/08/29 07:10:58;;;;;;;4.45;1.20;;;17.20;99.90;;;;;;4983010;28;20248;-72
2022/08/29 07:13:24;;;;;;;6.07;1.17;;;17.20;99.90;;;;;;4985061;28;20939;-72
2022/08/29 07:15:49;;;;;;;5.43;1.00;;;17.20;99.90;;;;;;4983913;28;20634;-70
2022/08/29 07:18:15;;;;;;;4.25;1.10;;;17.20;99.90;;;;;;4983826;28;20053;-72
2022/08/29 07:20:40;;;;;;;4.57;1.50;;;17.30;99.90;;;;;;4984990;28;20032;-71
2022/08/29 07:23:07;;;;;;;4.10;0.98;;;17.20;99.90;;;;;;4981468;28;20034;-72
2022/08/29 07:25:33;;;;;;;3.78;0.70;;;17.30;99.90;;;;;;4982790;28;20510;-70
2022/08/29 07:27:58;;;;;;;5.18;1.25;;;17.30;99.90;;;;;;4983783;28;20038;-71
2022/08/29 07:30:25;;;;;;;5.32;1.27;;;17.30;99.90;;;;;;4983359;28;20041;-71
2022/08/29 07:32:51;;;;;;;3.65;1.13;;;17.40;99.90;;;;;;4980860;28;20145;-71
2022/08/29 07:35:18;;;;;;;3.50;1.23;;;17.50;99.90;;;;;;4984767;28;20532;-72
2022/08/29 07:37:44;;;;;;;2.47;0.80;;;17.50;99.90;;;;;;4982586;28;20096;-73
2022/08/29 07:40:12;;;;;;;3.22;0.93;;;17.60;99.90;;;;;;4982161;28;20542;-71
2022/08/29 07:42:38;;;;;;;3.65;1.30;;;17.60;99.90;;;;;;4981699;28;20041;-72
2022/08/29 07:45:08;;;;;;;5.03;1.33;;;17.70;99.90;;;;;;4984674;28;20038;-71
2022/08/29 07:47:34;;;;;;;7.78;1.20;;;17.70;99.90;;;;;;4991551;28;20026;-73
2022/08/29 07:50:01;;;;;;;3.38;0.98;;;17.70;99.90;;;;;;4985082;28;20026;-72
2022/08/29 07:52:28;;;;;;;4.57;0.95;;;17.70;99.90;;;;;;4986458;28;20054;-71
2022/08/29 07:54:54;;;;;;;2.65;1.00;;;17.80;99.90;;;;;;4981887;28;20041;-72
2022/08/29 07:57:21;;;;;;;3.83;0.82;;;17.80;99.90;;;;;;4983570;28;20049;-70
2022/08/29 07:59:46;;;;;;;4.20;1.27;;;17.90;99.90;;;;;;4984005;28;20038;-71
2022/08/29 08:02:12;;;;;;;2.47;0.80;;;18.00;99.90;;;;;;4983178;28;20045;-72
2022/08/29 08:04:37;;;;;;;5.50;1.42;;;18.10;99.90;;;;;;4983608;28;20617;-71
2022/08/29 08:07:04;;;;;;;4.28;0.88;;;18.10;99.90;;;;;;4986128;28;20640;-72
2022/08/29 08:09:29;;;;;;;1.70;0.77;;;18.30;99.90;;;;;;4987420;28;20034;-71
2022/08/29 08:11:55;;;;;;;2.92;0.70;;;18.40;99.90;;;;;;4989355;28;21648;-72
2022/08/29 08:14:20;;;;;;;7.30;1.02;;;18.50;99.90;;;;;;4984400;28;20034;-71
2022/08/29 08:16:46;;;;;;;3.60;0.90;;;18.70;99.90;;;;;;4983005;28;20088;-70
2022/08/29 08:19:12;;;;;;;6.60;1.15;;;18.80;99.90;;;;;;4984031;28;20034;-71
2022/08/29 08:21:38;;;;;;;2.85;0.88;;;18.90;99.90;;;;;;4984080;28;20041;-71
2022/08/29 08:24:04;;;;;;;6.07;1.33;;;18.90;99.90;;;;;;4980895;28;20043;-71
2022/08/29 08:26:29;;;;;;;1.75;0.60;;;18.80;99.90;;;;;;4981691;28;20066;-72
2022/08/29 08:28:56;;;;;;;4.72;1.20;;;18.80;99.90;;;;;;4983787;28;20061;-71
2022/08/29 08:31:22;;;;;;;2.75;0.93;;;18.80;99.90;;;;;;4981182;28;20046;-70
2022/08/29 08:33:48;;;;;;;3.47;1.00;;;18.80;99.90;;;;;;4980918;28;20038;-71
2022/08/29 08:36:37;;;;;;;5.20;1.05;;;18.80;99.90;;;;;;4982040;28;20857;-72
2022/08/29 08:39:03;;;;;;;2.10;1.00;;;18.80;99.90;;;;;;4978884;28;20126;-71
2022/08/29 08:41:56;;;;;;;4.15;1.00;;;18.70;99.90;;;;;;4982445;28;20121;-72
2022/08/29 08:44:21;;;;;;;1.70;0.98;;;18.70;99.90;;;;;;4961413;28;20042;-71
2022/08/29 08:46:50;;;;;;;6.40;1.38;;;18.80;99.90;;;;;;4963210;28;20093;-70
2022/08/29 08:49:29;;;;;;;4.60;1.13;;;18.80;99.90;;;;;;4961416;28;20030;-72
2022/08/29 08:52:03;;;;;;;8.10;1.27;;;18.80;99.90;;;;;;4961905;28;20046;-72
2022/08/29 08:54:34;;;;;;;2.90;1.00;;;18.80;99.90;;;;;;4960996;28;20458;-72
2022/08/29 08:57:07;;;;;;;5.45;1.40;;;18.80;99.90;;;;;;4963238;28;20031;-72
2022/08/29 08:59:42;;;;;;;3.83;1.20;;;18.80;99.90;;;;;;4962247;28;20066;-71
2022/08/29 09:02:32;;;;;;;3.08;1.17;;;18.90;99.90;;;;;;4960515;28;20769;-71
2022/08/29 09:05:12;;;;;;;3.55;1.20;;;19.10;99.50;;;;;;4960005;28;20144;-71
2022/08/29 09:07:58;;;;;;;5.32;0.75;;;19.20;99.60;;;;;;4962179;28;20046;-71
2022/08/29 09:11:08;;;;;;;4.85;0.95;;;19.30;99.20;;;;;;4964306;28;20045;-71
2022/08/29 09:13:57;;;;;;;5.88;1.70;;;19.40;99.60;;;;;;4962823;28;20109;-71
2022/08/29 09:16:45;;;;;;;5.35;1.10;;;19.50;99.10;;;;;;4964978;28;20035;-70
2022/08/29 09:19:13;;;;;;;2.13;1.00;;;19.60;99.60;;;;;;4964542;28;20137;-72
2022/08/29 09:21:50;;;;;;;5.00;1.15;;;19.80;99.10;;;;;;4965303;28;20122;-71
2022/08/29 09:24:27;;;;;;;5.15;0.80;;;20.00;98.90;;;;;;4964417;28;20027;-71
2022/08/29 09:26:55;;;;;;;4.00;1.13;;;20.20;98.50;;;;;;4965919;28;20027;-72
2022/08/29 09:29:23;;;;;;;2.42;0.80;;;20.30;97.80;;;;;;4966552;28;20030;-71
2022/08/29 09:32:06;;;;;;;4.00;0.90;;;20.30;97.40;;;;;;4963746;28;20034;-70
2022/08/29 09:34:35;;;;;;;2.42;0.80;;;20.20;96.20;;;;;;4961328;28;20038;-72
2022/08/29 09:37:01;;;;;;;1.73;0.57;;;20.20;96.10;;;;;;4963181;28;20027;-72
2022/08/29 09:39:30;;;;;;;3.08;1.02;;;20.10;96.20;;;;;;4965295;28;20765;-72
2022/08/29 09:42:21;;;;;;;3.42;0.90;;;20.00;96.30;;;;;;4963746;28;20034;-71
2022/08/29 09:44:56;;;;;;;2.55;0.85;;;20.00;96.40;;;;;;4961732;28;20038;-72
2022/08/29 09:47:26;;;;;;;2.53;1.05;;;20.00;96.00;;;;;;4966144;28;20041;-72
2022/08/29 09:50:03;;;;;;;2.55;1.15;;;19.90;95.70;;;;;;4962169;28;20089;-72
2022/08/29 09:52:29;;;;;;;5.35;1.30;;;20.00;95.90;;;;;;4964001;28;20045;-72
2022/08/29 09:54:55;;;;;;;3.42;0.77;;;20.00;96.20;;;;;;4965169;28;20034;-71
2022/08/29 09:57:24;;;;;;;2.00;0.88;;;20.20;96.30;;;;;;4970100;28;20125;-71
2022/08/29 10:00:15;;;;;;;2.38;0.88;;;20.50;95.80;;;;;;4965602;28;20122;-71
2022/08/29 10:02:50;;;;;;;5.70;1.50;;;20.70;95.50;;;;;;4966008;28;20066;-72
2022/08/29 10:05:30;;;;;;;2.72;1.10;;;20.90;94.60;;;;;;4986355;28;20390;-71
2022/08/29 10:07:56;;;;;;;4.72;1.23;;;21.10;94.00;;;;;;4981081;28;20491;-72
2022/08/29 10:10:25;;;;;;;3.38;1.10;;;21.20;94.20;;;;;;4983854;28;20030;-73
2022/08/29 10:13:01;;;;;;;4.53;1.00;;;21.30;94.70;;;;;;4983871;28;20038;-73
2022/08/29 10:15:33;;;;;;;3.20;1.15;;;21.50;94.40;;;;;;4983497;28;20065;-73
2022/08/29 10:18:27;;;;;;;6.53;1.20;;;21.70;93.70;;;;;;4979809;28;20053;-73
2022/08/29 10:21:09;;;;;;;6.63;1.00;;;21.60;94.20;;;;;;4980355;28;20049;-71
2022/08/29 10:23:53;;;;;;;5.30;0.98;;;21.50;94.10;;;;;;4982776;28;20038;-72
2022/08/29 10:26:41;;;;;;;4.43;1.00;;;21.40;94.30;;;;;;4982828;28;20065;-72
2022/08/29 10:29:27;;;;;;;4.00;1.05;;;21.10;93.70;;;;;;4984295;28;20042;-72
2022/08/29 10:31:56;;;;;;;5.35;1.15;;;21.00;93.90;;;;;;4981771;28;20034;-72
2022/08/29 10:34:52;;;;;;;2.65;0.80;;;20.90;93.90;;;;;;4983355;28;20720;-74
2022/08/29 10:37:51;;;;;;;3.90;0.70;;;20.80;93.30;;;;;;4987285;28;20037;-71
2022/08/29 10:40:24;;;;;;;3.08;1.27;;;20.70;94.60;;;;;;4985302;28;20498;-72
2022/08/29 10:42:59;;;;;;;4.85;0.90;;;20.50;94.10;;;;;;4981668;28;20038;-72
2022/08/29 10:45:49;;;;;;;4.30;1.00;;;20.40;95.00;;;;;;4981755;28;20084;-71
2022/08/29 10:48:23;;;;;;;2.95;1.00;;;20.50;95.20;;;;;;4982904;28;20030;-73
2022/08/29 10:51:04;;;;;;;4.30;1.20;;;20.40;95.10;;;;;;4983821;28;20031;-72
2022/08/29 10:53:37;;;;;;;5.53;1.30;;;20.50;95.70;;;;;;5012254;28;20125;-72
2022/08/29 10:56:14;;;;;;;3.28;1.10;;;20.60;95.00;;;;;;4981872;28;20030;-72
2022/08/29 10:59:27;;;;;;;3.72;1.08;;;20.80;95.00;;;;;;4982687;28;20038;-71
2022/08/29 11:02:11;;;;;;;10.90;1.23;;;20.80;94.70;;;;;;4979977;28;20034;-71
2022/08/29 11:04:42;;;;;;;3.65;0.95;;;20.80;94.20;;;;;;4985100;28;20558;-72
2022/08/29 11:07:40;;;;;;;2.13;0.95;;;20.80;94.60;;;;;;4984955;28;20092;-72
2022/08/29 11:10:12;;;;;;;4.13;0.90;;;21.00;94.00;;;;;;4981389;28;20429;-72
2022/08/29 11:12:47;;;;;;;4.93;1.67;;;21.10;93.80;;;;;;4982151;28;20035;-71
2022/08/29 11:15:23;;;;;;;5.45;1.10;;;21.40;93.30;;;;;;4986760;28;20057;-72
2022/08/29 11:18:27;;;;;;;6.47;0.95;;;21.60;93.30;;;;;;4983394;28;20045;-72
2022/08/29 11:21:08;;;;;;;4.38;0.88;;;21.70;92.80;;;;;;4982963;28;20065;-72
2022/08/29 11:23:43;;;;;;;4.10;0.95;;;21.50;92.70;;;;;;4980017;28;20066;-73
2022/08/29 11:26:21;;;;;;;3.47;1.02;;;21.30;93.60;;;;;;4984101;28;20062;-72
2022/08/29 11:29:00;;;;;;;5.07;1.25;;;21.20;94.20;;;;;;4982792;28;20031;-72
2022/08/29 11:31:53;;;;;;;3.20;1.00;;;21.20;94.30;;;;;;4984422;28;20079;-70
2022/08/29 11:34:37;;;;;;;5.50;0.90;;;21.10;94.40;;;;;;4980490;28;20458;-72
2022/08/29 11:37:40;;;;;;;2.75;0.93;;;20.90;94.30;;;;;;4982658;28;20047;-73
2022/08/29 11:40:28;;;;;;;5.18;1.50;;;21.00;94.10;;;;;;4981105;28;20411;-72
2022/08/29 11:42:59;;;;;;;5.93;0.98;;;20.90;94.00;;;;;;4982786;28;20274;-72
2022/08/29 11:45:28;;;;;;;5.25;0.88;;;20.90;94.30;;;;;;4983322;28;20532;-72
2022/08/29 11:48:02;;;;;;;6.00;1.65;;;20.90;94.60;;;;;;4980614;28;20030;-73
2022/08/29 11:50:30;;;;;;;7.88;1.33;;;21.00;94.80;;;;;;4984356;28;20088;-72
2022/08/29 11:53:19;;;;;;;4.00;1.08;;;21.10;94.80;;;;;;4985093;28;20073;-72
2022/08/29 11:56:13;;;;;;;5.72;1.27;;;21.30;94.10;;;;;;4983907;28;20094;-73
2022/08/29 11:58:42;;;;;;;3.83;1.23;;;21.40;93.70;;;;;;4981593;28;20739;-72
2022/08/29 12:01:35;;;;;;;7.50;1.58;;;21.30;93.60;;;;;;4985194;28;20077;-73
2022/08/29 12:04:03;;;;;;;5.35;0.80;;;21.20;93.80;;;;;;4981655;28;20813;-73
2022/08/29 12:06:41;;;;;;;2.15;0.80;;;21.20;93.70;;;;;;4988955;28;20038;-73
2022/08/29 12:09:33;;;;;;;5.38;1.00;;;21.10;94.30;;;;;;4988020;28;20049;-75
2022/08/29 12:12:04;;;;;;;1.65;0.70;;;21.20;94.40;;;;;;4990742;28;20049;-72
2022/08/29 12:14:33;;;;;;;4.50;0.80;;;21.30;94.30;;;;;;4987702;28;20555;-73
2022/08/29 12:17:04;;;;;;;6.25;1.13;;;21.50;94.00;;;;;;4983342;28;20462;-72
2022/08/29 12:19:57;;;;;;;3.25;0.88;;;21.50;92.80;;;;;;4983944;28;20029;-73
2022/08/29 12:22:50;;;;;;;2.85;0.80;;;21.50;93.20;;;;;;4980132;28;20435;-73
2022/08/29 12:25:40;;;;;;;4.15;1.00;;;21.50;93.60;;;;;;4983900;28;20117;-72
2022/08/29 12:28:33;;;;;;;3.03;0.73;;;21.60;93.40;;;;;;4980341;28;20038;-73
2022/08/29 12:31:08;;;;;;;2.22;0.70;;;21.80;92.80;;;;;;4985800;28;20031;-73
2022/08/29 12:33:35;;;;;;;2.15;0.90;;;21.80;92.90;;;;;;4981668;28;20529;-73
2022/08/29 12:36:28;;;;;;;4.00;1.02;;;21.80;92.40;;;;;;4981709;28;20029;-72
2022/08/29 12:39:05;;;;;;;2.88;1.00;;;21.80;92.90;;;;;;4981249;28;20041;-73
2022/08/29 12:41:52;;;;;;;3.00;1.10;;;21.80;93.00;;;;;;4981140;28;20868;-73
2022/08/29 12:44:26;;;;;;;2.33;0.73;;;21.80;93.10;;;;;;4986669;28;20030;-73
2022/08/29 12:47:03;;;;;;;9.35;0.95;;;21.80;93.40;;;;;;4986135;28;20041;-73
2022/08/29 12:49:49;;;;;;;2.92;0.95;;;21.80;93.40;;;;;;4985027;28;20034;-73
2022/08/29 12:52:25;;;;;;;1.42;0.65;;;21.90;93.70;;;;;;4986703;28;20038;-71
2022/08/29 12:54:52;;;;;;;1.35;0.77;;;22.00;93.70;;;;;;4985446;28;20031;-73
2022/08/29 12:57:24;;;;;;;4.70;0.95;;;22.00;93.70;;;;;;4987817;28;20033;-73
2022/08/29 12:59:52;;;;;;;3.28;1.10;;;22.00;93.50;;;;;;4985138;28;20030;-73
2022/08/29 13:02:37;;;;;;;5.72;0.88;;;21.90;93.90;;;;;;4982451;28;20041;-72
2022/08/29 13:05:21;;;;;;;3.85;0.93;;;21.90;93.90;;;;;;4987416;28;20101;-73
2022/08/29 13:07:55;;;;;;;5.63;1.23;;;22.00;93.60;;;;;;4964639;28;20045;-73
2022/08/29 13:10:22;;;;;;;1.20;0.60;;;22.00;93.90;;;;;;4965529;28;20079;-73